Athens, Greece

4:58 AM EEST on July 28, 2016 (GMT +0300)
SV1GST - SOURMENA HELLINIKO | | Change Station

Elev 300 ft 37.89 °N, 23.75 °E | Updated 10 seconds ago

Clear
Clear
80.4 °F
Feels Like 80 °F
N
3.0
Wind Variable Wind from NNE
Gusts 4.0 mph

Today
High -- | Low -- °F
--% Chance of Precip.
Yesterday
High -- | Low -- °F
Precip. -- in
Pressure 29.89 in
Visibility -9999.0 miles
Clouds
Heat Index 80 °F
Dew Point 54 °F
Humidity 41%
Rainfall 0.00 in
Snow Depth Not available.
6:25 AM 8:37 PM
Last Quarter, 37% visible
METAR LGEL 280150Z 34006KT CAVOK 24/10 Q1012
Pressure 29.89 in
Visibility -9999.0 miles
Clouds
Heat Index 80 °F
Dew Point 54 °F
Humidity 41%
Rainfall 0.00 in
Snow Depth Not available.
6:25 AM 8:37 PM
Last Quarter, 37% visible
METAR LGEL 280150Z 34006KT CAVOK 24/10 Q1012

10-Day Weather Forecast

×

Almanac

Astronomy

Jul. 28, 2016 Rise Set
Actual Time
Civil Twilight
Nautical Twilight
Astronomical Twilight
Moon
Length of Visible Light
Length of Day
Tomorrow will be .
, % of the Moon is Illuminated

Today's Extremes

Country Highs Country Lows

Community

WunderPhotos

Upload Photos

1,928,005 photos uploaded!

WunderBlog® & News

Nearby

Air Quality

  Air Quality AQ Index Pollutant
Not available.

Snow Depth

Station Depth Elevation

Earthquake Activity

City Distance Mag. Time & Date
Minimum magnitude displayed is 2.5.

Coastal Water Temperatures

Place Temperature

Stations

Nearby Weather Stations

Station Location Temp. Windchill Dew Point Humidity Wind Precip. Elev Updated Type